createdAt,value
2023-05-09T00:00:49.732Z,102379.88
2023-05-09T00:03:17.599Z,102380.69
2023-05-09T00:05:47.752Z,102384.19
2023-05-09T00:08:15.692Z,102376.28
2023-05-09T00:10:43.611Z,102375.06
2023-05-09T00:13:12.357Z,102328.91
2023-05-09T00:15:40.267Z,102377.78
2023-05-09T00:18:12.313Z,102373.38
2023-05-09T00:20:41.163Z,102372.34
2023-05-09T00:23:09.201Z,102327.22
2023-05-09T00:25:37.300Z,102363.53
2023-05-09T00:28:05.518Z,102371.34
2023-05-09T00:30:33.593Z,102363.53
2023-05-09T00:33:01.744Z,102367.84
2023-05-09T00:35:32.408Z,102365.25
2023-05-09T00:38:00.365Z,102364.44
2023-05-09T00:40:28.234Z,102362.63
2023-05-09T00:42:58.787Z,102361.63
2023-05-09T00:45:27.323Z,102361.63
2023-05-09T00:47:55.454Z,102271.53
2023-05-09T00:50:23.469Z,102340.75
2023-05-09T00:52:52.825Z,102336.34
2023-05-09T00:55:21.088Z,102339.94
2023-05-09T00:57:49.392Z,102348.88
2023-05-09T01:00:19.629Z,102338.84
2023-05-09T01:02:51.215Z,102343.97
2023-05-09T01:05:20.546Z,102350.19
2023-05-09T01:07:58.722Z,102350.09
2023-05-09T01:10:33.127Z,102349.09
2023-05-09T01:13:05.887Z,102348.09
2023-05-09T01:15:38.764Z,102344.56
2023-05-09T01:18:17.336Z,102348.78
2023-05-09T01:20:49.780Z,102344.28
2023-05-09T01:23:44.243Z,102347.59
2023-05-09T01:26:18.879Z,102314.28
2023-05-09T01:29:28.569Z,102341.16
2023-05-09T01:31:57.731Z,102335.84
2023-05-09T01:34:28.267Z,102332.25
2023-05-09T01:36:59.754Z,102329.53
2023-05-09T01:39:28.762Z,102309.47
2023-05-09T01:41:58.974Z,102324.81
2023-05-09T01:44:33.869Z,102166.66
2023-05-09T01:47:02.688Z,102321.91
2023-05-09T01:49:32.737Z,102313.47
2023-05-09T01:52:02.755Z,102295.22
2023-05-09T01:54:32.022Z,102298.03
2023-05-09T01:57:00.926Z,102320.88
2023-05-09T01:59:31.526Z,102294.50
2023-05-09T02:01:59.714Z,102317.78
2023-05-09T02:04:29.824Z,102318.47
2023-05-09T02:06:59.290Z,102302.81
2023-05-09T02:09:27.410Z,102234.69
2023-05-09T02:11:55.411Z,102300.00
2023-05-09T02:14:23.615Z,102316.94
2023-05-09T02:16:53.006Z,102307.22
2023-05-09T02:19:20.859Z,102299.69
2023-05-09T02:21:48.865Z,102302.50
2023-05-09T02:24:16.715Z,102310.22
2023-05-09T02:26:45.087Z,102307.41
2023-05-09T02:29:13.673Z,102302.09
2023-05-09T02:31:43.629Z,102302.00
2023-05-09T02:34:14.447Z,102285.94
2023-05-09T02:36:43.613Z,102300.19
2023-05-09T02:39:11.965Z,102297.69
2023-05-09T02:41:39.898Z,102295.97
2023-05-09T02:44:08.039Z,102299.47
2023-05-09T02:46:35.961Z,102306.41
2023-05-09T02:49:05.179Z,102300.28
2023-05-09T02:51:34.458Z,102300.97
2023-05-09T02:54:02.284Z,102293.97
2023-05-09T02:56:30.193Z,102297.38
2023-05-09T02:58:58.100Z,102297.38
2023-05-09T03:01:26.128Z,102296.47
2023-05-09T03:03:54.208Z,102292.66
2023-05-09T03:06:22.160Z,102297.97
2023-05-09T03:08:51.438Z,102288.22
2023-05-09T03:11:19.398Z,102297.97
2023-05-09T03:13:47.306Z,102294.56
2023-05-09T03:16:16.060Z,102263.25
2023-05-09T03:18:44.094Z,102301.56
2023-05-09T03:21:12.710Z,102285.13
2023-05-09T03:23:40.737Z,102181.53
2023-05-09T03:26:10.065Z,102288.16
2023-05-09T03:28:39.418Z,102282.34
2023-05-09T03:31:07.496Z,102194.69
2023-05-09T03:33:35.527Z,102283.56
2023-05-09T03:36:03.432Z,102286.47
2023-05-09T03:38:31.278Z,102281.56
2023-05-09T03:40:59.507Z,102287.19
2023-05-09T03:43:28.852Z,102285.78
2023-05-09T03:45:56.698Z,102278.97
2023-05-09T03:48:24.676Z,102279.28
2023-05-09T03:50:52.623Z,102279.56
2023-05-09T03:53:20.624Z,101965.69
2023-05-09T03:55:49.594Z,102281.97
2023-05-09T03:58:19.346Z,102252.69
2023-05-09T04:00:48.667Z,102279.97
2023-05-09T04:03:17.841Z,102273.34
2023-05-09T04:05:45.783Z,102271.03
2023-05-09T04:08:13.860Z,102271.31
2023-05-09T04:10:41.938Z,102266.09
2023-05-09T04:13:09.790Z,102279.94
2023-05-09T04:15:37.688Z,102273.81
2023-05-09T04:18:07.918Z,102281.50
2023-05-09T04:20:36.034Z,102282.72
2023-05-09T04:23:04.095Z,102282.28
2023-05-09T04:25:32.316Z,102279.16
2023-05-09T04:28:00.151Z,102279.44
2023-05-09T04:30:28.082Z,102275.22
2023-05-09T04:32:56.496Z,102282.88
2023-05-09T04:35:26.780Z,102167.16
2023-05-09T04:37:54.898Z,102277.59
2023-05-09T04:40:23.955Z,102282.38
2023-05-09T04:42:52.732Z,102255.97
2023-05-09T04:45:20.631Z,102275.38
2023-05-09T04:47:50.182Z,102273.31
2023-05-09T04:50:18.147Z,102261.16
2023-05-09T04:52:47.426Z,102229.16
2023-05-09T04:55:15.807Z,102275.00
2023-05-09T04:57:43.712Z,102278.25
2023-05-09T05:00:12.872Z,102270.94
2023-05-09T05:02:41.109Z,102270.91
2023-05-09T05:05:12.409Z,102269.91
2023-05-09T05:07:40.699Z,102247.63
2023-05-09T05:10:11.377Z,102270.22
2023-05-09T05:12:51.020Z,102277.84
2023-05-09T05:15:19.808Z,102270.75
2023-05-09T05:17:47.734Z,102257.34
2023-05-09T05:20:15.626Z,102270.38
2023-05-09T05:22:43.594Z,102260.22
2023-05-09T05:25:13.389Z,102237.69
2023-05-09T05:27:43.804Z,102269.53
2023-05-09T05:30:12.833Z,102270.06
2023-05-09T05:32:40.792Z,102134.59
2023-05-09T05:35:10.686Z,102262.91
2023-05-09T05:37:38.731Z,102262.38
2023-05-09T05:40:08.152Z,102243.06
2023-05-09T05:42:40.016Z,102265.63
2023-05-09T05:45:09.037Z,102266.69
2023-05-09T05:47:38.145Z,102253.50
2023-05-09T05:50:10.462Z,102259.44
2023-05-09T05:52:38.579Z,102261.47
2023-05-09T05:55:07.646Z,102255.63
2023-05-09T05:57:37.856Z,102251.41
2023-05-09T06:00:08.455Z,102250.97
2023-05-09T06:02:36.545Z,102253.00
2023-05-09T06:05:04.994Z,102247.91
2023-05-09T06:07:32.835Z,102248.88
2023-05-09T06:10:00.743Z,102239.50
2023-05-09T06:12:28.651Z,102230.78
2023-05-09T06:14:57.955Z,102239.53
2023-05-09T06:17:25.935Z,102246.81
2023-05-09T06:19:53.795Z,102241.09
2023-05-09T06:22:21.655Z,102240.47
2023-05-09T06:24:49.592Z,102233.72
2023-05-09T06:27:17.666Z,102228.75
2023-05-09T06:29:45.541Z,102236.84
2023-05-09T06:32:14.995Z,102239.69
2023-05-09T06:34:43.068Z,102225.50
2023-05-09T06:37:11.028Z,102234.78
2023-05-09T06:39:39.004Z,102230.88
2023-05-09T06:42:07.368Z,102240.88
2023-05-09T06:44:35.333Z,102226.16
2023-05-09T06:47:03.288Z,102228.97
2023-05-09T06:49:32.716Z,102200.75
2023-05-09T06:52:00.564Z,102224.41
2023-05-09T06:54:28.554Z,102228.25
2023-05-09T06:56:56.571Z,102233.03
2023-05-09T06:59:24.466Z,102228.16
2023-05-09T07:01:52.455Z,102231.44
2023-05-09T07:04:20.508Z,102231.09
2023-05-09T07:06:50.719Z,102214.66
2023-05-09T07:09:20.582Z,102211.44
2023-05-09T07:11:48.511Z,102213.25
2023-05-09T07:14:16.340Z,102208.38
2023-05-09T07:16:44.826Z,102212.38
2023-05-09T07:19:12.740Z,102211.59
2023-05-09T07:21:40.558Z,102199.63
2023-05-09T07:24:10.157Z,102203.94
2023-05-09T07:26:38.186Z,102197.22
2023-05-09T07:29:06.288Z,102186.28
2023-05-09T07:31:36.086Z,102159.19
2023-05-09T07:34:05.536Z,102191.22
2023-05-09T07:36:35.397Z,102178.66
2023-05-09T07:39:04.968Z,102183.72
2023-05-09T07:41:34.530Z,102183.16
2023-05-09T07:44:02.476Z,102185.34
2023-05-09T07:46:30.369Z,102187.81
2023-05-09T07:48:58.458Z,102182.88
2023-05-09T07:51:26.489Z,102180.38
2023-05-09T07:53:56.171Z,102175.63
2023-05-09T07:56:24.160Z,102171.69
2023-05-09T07:58:55.583Z,102165.41
2023-05-09T08:01:23.713Z,102157.81
2023-05-09T08:03:52.162Z,102158.97
2023-05-09T08:06:20.041Z,102157.22
2023-05-09T08:08:47.922Z,102156.91
2023-05-09T08:11:16.128Z,102160.38
2023-05-09T08:13:44.329Z,102152.22
2023-05-09T08:16:13.670Z,102136.72
2023-05-09T08:18:43.411Z,102155.63
2023-05-09T08:21:11.247Z,102141.91
2023-05-09T08:23:40.658Z,102150.69
2023-05-09T08:26:08.625Z,102142.06
2023-05-09T08:28:36.552Z,102132.38
2023-05-09T08:31:06.702Z,102135.03
2023-05-09T08:33:40.529Z,102121.56
2023-05-09T08:36:09.989Z,102118.41
2023-05-09T08:38:40.571Z,102124.50
2023-05-09T08:41:08.502Z,102127.66
2023-05-09T08:43:37.157Z,102128.03
2023-05-09T08:46:09.015Z,102119.41
2023-05-09T08:48:38.700Z,102116.84
2023-05-09T08:51:07.813Z,102117.09
2023-05-09T08:53:35.936Z,102093.69
2023-05-09T08:56:05.145Z,102101.97
2023-05-09T08:58:34.482Z,102119.06
2023-05-09T09:01:04.804Z,102101.00
2023-05-09T09:03:33.144Z,102110.63
2023-05-09T09:06:03.008Z,102101.06
2023-05-09T09:08:31.486Z,102101.47
2023-05-09T09:10:59.502Z,102091.88
2023-05-09T09:13:27.683Z,102030.47
2023-05-09T09:15:58.596Z,102098.19
2023-05-09T09:18:31.059Z,102080.38
2023-05-09T09:21:02.751Z,102089.88
2023-05-09T09:23:33.917Z,102079.31
2023-05-09T09:26:04.957Z,102079.31
2023-05-09T09:28:33.444Z,102089.00
2023-05-09T09:31:01.629Z,102077.09
2023-05-09T09:33:30.768Z,102086.22
2023-05-09T09:35:59.820Z,102082.78
2023-05-09T09:38:27.957Z,102076.47
2023-05-09T09:40:58.081Z,102077.34
2023-05-09T09:43:30.128Z,102073.97
2023-05-09T09:46:00.953Z,102062.63
2023-05-09T09:48:33.876Z,102066.25
2023-05-09T09:51:09.224Z,102062.72
2023-05-09T09:53:40.764Z,102047.47
2023-05-09T09:56:10.607Z,102062.50
2023-05-09T09:58:38.643Z,102062.63
2023-05-09T10:01:07.766Z,102068.94
2023-05-09T10:03:40.225Z,102052.97
2023-05-09T10:06:11.548Z,102038.66
2023-05-09T10:08:39.507Z,101943.28
2023-05-09T10:11:10.391Z,102046.69
2023-05-09T10:13:38.949Z,102050.25
2023-05-09T10:16:07.456Z,102027.06
2023-05-09T10:18:36.543Z,102036.00
2023-05-09T10:21:06.304Z,102035.13
2023-05-09T10:23:38.218Z,102039.56
2023-05-09T10:26:15.915Z,102031.56
2023-05-09T10:28:47.748Z,102033.28
2023-05-09T10:31:20.908Z,102040.34
2023-05-09T10:33:52.744Z,102039.47
2023-05-09T10:36:22.327Z,102030.56
2023-05-09T10:38:51.223Z,102035.97
2023-05-09T10:41:22.132Z,102027.09
2023-05-09T10:43:50.349Z,102030.63
2023-05-09T10:46:19.019Z,102027.97
2023-05-09T10:48:48.911Z,102018.03
2023-05-09T10:51:18.103Z,102037.47
2023-05-09T10:53:47.962Z,102021.44
2023-05-09T10:56:30.114Z,102034.78
2023-05-09T10:58:58.246Z,102025.97
2023-05-09T11:01:35.500Z,102025.03
2023-05-09T11:04:10.153Z,102040.88
2023-05-09T11:06:51.510Z,102020.22
2023-05-09T11:09:32.951Z,102030.78
2023-05-09T11:12:10.277Z,102021.00
2023-05-09T11:14:43.447Z,102017.53
2023-05-09T11:17:13.787Z,102036.59
2023-05-09T11:20:06.611Z,102021.59
2023-05-09T11:22:41.524Z,102007.28
2023-05-09T11:25:11.439Z,102030.47
2023-05-09T11:27:44.498Z,102010.94
2023-05-09T11:30:14.656Z,102001.13
2023-05-09T11:32:46.221Z,102007.31
2023-05-09T11:35:16.260Z,102008.75
2023-05-09T11:37:49.741Z,102012.13
2023-05-09T11:40:19.109Z,102004.06
2023-05-09T11:42:50.968Z,102007.88
2023-05-09T11:45:19.227Z,102010.91
2023-05-09T11:47:47.530Z,102009.25
2023-05-09T11:50:22.223Z,102004.78
2023-05-09T11:52:51.072Z,101999.44
2023-05-09T11:55:22.258Z,102011.75
2023-05-09T11:57:51.919Z,102016.19
2023-05-09T12:00:21.602Z,102005.63
2023-05-09T12:02:51.055Z,102003.91
2023-05-09T12:05:23.065Z,101998.63
2023-05-09T12:07:52.529Z,101989.72
2023-05-09T12:10:22.884Z,101991.50
2023-05-09T12:12:52.357Z,101990.63
2023-05-09T12:15:21.855Z,101985.28
2023-05-09T12:18:02.629Z,101991.47
2023-05-09T12:20:41.692Z,101970.97
2023-05-09T12:23:11.063Z,101954.97
2023-05-09T12:25:39.013Z,101984.38
2023-05-09T12:28:07.317Z,101986.13
2023-05-09T12:30:35.686Z,101964.75
2023-05-09T12:33:03.793Z,101973.63
2023-05-09T12:35:35.379Z,101964.63
2023-05-09T12:38:03.756Z,101974.41
2023-05-09T12:40:31.788Z,101958.38
2023-05-09T12:43:02.650Z,101946.03
2023-05-09T12:45:33.857Z,101949.38
2023-05-09T12:48:02.599Z,101954.63
2023-05-09T12:50:36.485Z,101960.25
2023-05-09T12:53:05.777Z,101956.72
2023-05-09T12:55:40.775Z,101937.94
2023-05-09T12:58:08.635Z,101908.44
2023-05-09T13:00:44.196Z,101937.56
2023-05-09T13:03:26.041Z,101940.44
2023-05-09T13:06:00.135Z,101933.09
2023-05-09T13:08:28.447Z,101930.06
2023-05-09T13:11:07.932Z,101920.06
2023-05-09T13:13:43.300Z,101910.28
2023-05-09T13:16:13.270Z,101932.84
2023-05-09T13:18:42.977Z,101921.31
2023-05-09T13:21:13.478Z,101943.63
2023-05-09T13:23:42.243Z,101912.59
2023-05-09T13:26:10.228Z,101913.66
2023-05-09T13:28:38.214Z,101910.47
2023-05-09T13:31:06.903Z,101899.84
2023-05-09T13:33:35.048Z,101920.13
2023-05-09T13:36:03.144Z,101887.59
2023-05-09T13:38:35.436Z,101905.97
2023-05-09T13:41:03.704Z,101894.66
2023-05-09T13:43:31.659Z,101908.25
2023-05-09T13:45:59.819Z,101890.47
2023-05-09T13:48:28.111Z,101880.31
2023-05-09T13:50:57.771Z,101879.13
2023-05-09T13:53:25.615Z,101876.59
2023-05-09T13:55:55.022Z,101896.19
2023-05-09T13:58:22.883Z,101882.81
2023-05-09T14:00:51.567Z,101887.81
2023-05-09T14:03:19.979Z,101885.69
2023-05-09T14:05:48.207Z,101884.91
2023-05-09T14:08:16.653Z,101870.13
2023-05-09T14:10:44.777Z,101882.22
2023-05-09T14:13:15.674Z,101879.09
2023-05-09T14:15:43.771Z,101873.94
2023-05-09T14:18:14.855Z,101903.97
2023-05-09T14:20:44.953Z,101882.63
2023-05-09T14:23:13.676Z,101869.78
2023-05-09T14:25:41.673Z,101878.09
2023-05-09T14:28:09.739Z,101875.97
2023-05-09T14:30:39.258Z,101853.16
2023-05-09T14:33:07.226Z,101832.75
2023-05-09T14:35:39.658Z,101860.47
2023-05-09T14:38:09.244Z,101848.00
2023-05-09T14:40:39.187Z,101839.44
2023-05-09T14:43:07.446Z,101858.47
2023-05-09T14:45:35.475Z,101862.69
2023-05-09T14:48:05.035Z,101868.72
2023-05-09T14:50:33.491Z,101850.38
2023-05-09T14:53:02.195Z,101879.09
2023-05-09T14:55:31.358Z,101861.41
2023-05-09T14:57:59.447Z,101853.16
2023-05-09T15:00:29.351Z,101855.38
2023-05-09T15:02:57.665Z,101878.09
2023-05-09T15:05:27.455Z,101858.28
2023-05-09T15:07:55.510Z,101850.47
2023-05-09T15:10:23.969Z,101863.00
2023-05-09T15:12:51.802Z,101849.91
2023-05-09T15:15:21.539Z,101854.41
2023-05-09T15:17:49.357Z,101868.66
2023-05-09T15:20:18.671Z,101800.19
2023-05-09T15:22:50.002Z,101833.97
2023-05-09T15:25:19.772Z,101790.44
2023-05-09T15:27:50.423Z,101833.97
2023-05-09T15:30:18.496Z,101827.69
2023-05-09T15:32:46.995Z,101831.03
2023-05-09T15:35:15.981Z,101831.47
2023-05-09T15:37:43.880Z,101823.88
2023-05-09T15:40:15.374Z,101817.47
2023-05-09T15:42:43.602Z,101833.66
2023-05-09T15:45:11.764Z,101817.59
2023-05-09T15:47:39.646Z,101816.91
2023-05-09T15:50:08.793Z,101813.44
2023-05-09T15:52:36.815Z,101812.00
2023-05-09T15:55:04.869Z,101807.81
2023-05-09T15:57:34.433Z,101804.25
2023-05-09T16:00:07.862Z,101801.66
2023-05-09T16:02:35.938Z,101797.94
2023-05-09T16:05:05.622Z,101788.72
2023-05-09T16:07:35.492Z,101794.38
2023-05-09T16:10:04.075Z,101784.66
2023-05-09T16:12:33.148Z,101775.75
2023-05-09T16:15:02.824Z,101790.72
2023-05-09T16:17:31.744Z,101782.91
2023-05-09T16:19:59.993Z,101784.78
2023-05-09T16:22:27.901Z,101784.03
2023-05-09T16:24:55.857Z,101780.50
2023-05-09T16:27:23.740Z,101778.75
2023-05-09T16:29:52.770Z,101763.63
2023-05-09T16:32:22.160Z,101775.16
2023-05-09T16:34:50.187Z,101780.56
2023-05-09T16:37:19.071Z,101729.03
2023-05-09T16:39:47.082Z,101745.03
2023-05-09T16:42:14.976Z,101763.75
2023-05-09T16:44:42.863Z,101719.34
2023-05-09T16:47:10.872Z,101777.09
2023-05-09T16:49:40.097Z,101775.31
2023-05-09T16:52:07.954Z,101760.19
2023-05-09T16:54:36.301Z,101757.47
2023-05-09T16:57:04.354Z,101744.13
2023-05-09T16:59:32.908Z,101762.78
2023-05-09T17:02:00.993Z,101771.50
2023-05-09T17:04:29.514Z,101748.09
2023-05-09T17:06:59.068Z,101763.06
2023-05-09T17:09:27.421Z,101720.88
2023-05-09T17:11:55.297Z,101759.75
2023-05-09T17:14:23.411Z,101750.31
2023-05-09T17:16:51.656Z,101745.28
2023-05-09T17:19:23.274Z,101758.09
2023-05-09T17:21:51.383Z,101746.03
2023-05-09T17:24:20.696Z,101766.13
2023-05-09T17:26:50.168Z,101766.53
2023-05-09T17:29:18.090Z,101776.72
2023-05-09T17:31:46.226Z,101756.09
2023-05-09T17:34:14.130Z,101762.22
2023-05-09T17:36:41.976Z,101756.75
2023-05-09T17:39:11.556Z,101734.38
2023-05-09T17:41:41.525Z,101764.41
2023-05-09T17:44:11.845Z,101746.44
2023-05-09T17:46:39.908Z,101755.19
2023-05-09T17:49:10.281Z,101739.81
2023-05-09T17:51:38.122Z,101759.91
2023-05-09T17:54:06.454Z,101765.88
2023-05-09T17:56:34.500Z,101767.25
2023-05-09T17:59:03.923Z,101763.56
2023-05-09T18:01:31.921Z,101760.78
2023-05-09T18:03:59.863Z,101763.31
2023-05-09T18:06:27.771Z,101764.84
2023-05-09T18:08:56.445Z,101760.28
2023-05-09T18:11:24.634Z,101769.56
2023-05-09T18:13:52.566Z,101761.94
2023-05-09T18:16:22.086Z,101782.03
2023-05-09T18:18:50.401Z,101768.47
2023-05-09T18:21:18.328Z,101770.63
2023-05-09T18:23:46.439Z,101769.47
2023-05-09T18:26:14.283Z,101770.00
2023-05-09T18:28:42.284Z,101745.56
2023-05-09T18:31:11.954Z,101764.72
2023-05-09T18:33:41.913Z,101755.41
2023-05-09T18:36:11.218Z,101769.09
2023-05-09T18:38:41.105Z,101787.69
2023-05-09T18:41:10.526Z,101789.22
2023-05-09T18:43:42.306Z,101788.81
2023-05-09T18:46:17.652Z,101777.69
2023-05-09T18:48:48.349Z,101785.69
2023-05-09T18:51:16.491Z,101785.53
2023-05-09T18:53:44.658Z,101719.97
2023-05-09T18:56:13.150Z,101776.81
2023-05-09T18:58:41.476Z,101790.19
2023-05-09T19:01:11.967Z,101789.06
2023-05-09T19:03:46.441Z,101777.41
2023-05-09T19:06:18.260Z,101787.06
2023-05-09T19:08:48.092Z,101781.50
2023-05-09T19:11:16.231Z,101797.19
2023-05-09T19:13:48.631Z,101794.38
2023-05-09T19:16:19.881Z,101786.28
2023-05-09T19:18:49.918Z,101788.56
2023-05-09T19:21:19.870Z,101791.03
2023-05-09T19:23:49.398Z,101766.81
2023-05-09T19:26:17.954Z,101774.59
2023-05-09T19:28:46.848Z,101789.59
2023-05-09T19:31:15.811Z,101790.38
2023-05-09T19:33:45.650Z,101782.38
2023-05-09T19:36:13.904Z,101802.22
2023-05-09T19:38:43.261Z,101797.75
2023-05-09T19:41:11.567Z,101792.44
2023-05-09T19:43:39.618Z,101789.63
2023-05-09T19:46:07.738Z,101783.13
2023-05-09T19:48:36.333Z,101785.69
2023-05-09T19:51:04.926Z,101785.75
2023-05-09T19:53:34.037Z,101796.22
2023-05-09T19:56:03.569Z,101791.66
2023-05-09T19:58:31.657Z,101777.19
2023-05-09T20:00:59.820Z,101779.81
2023-05-09T20:03:27.701Z,101786.94
2023-05-09T20:05:56.029Z,101765.56
2023-05-09T20:08:25.514Z,101792.97
2023-05-09T20:10:54.018Z,101599.13
2023-05-09T20:13:23.675Z,101782.03
2023-05-09T20:15:52.317Z,101772.13
2023-05-09T20:18:20.498Z,101781.84
2023-05-09T20:20:48.797Z,101765.97
2023-05-09T20:23:17.024Z,101772.00
2023-05-09T20:25:45.115Z,101787.56
2023-05-09T20:28:16.379Z,101772.53
2023-05-09T20:30:46.303Z,101754.25
2023-05-09T20:33:14.659Z,101777.66
2023-05-09T20:35:44.016Z,101743.63
2023-05-09T20:38:12.417Z,101781.00
2023-05-09T20:40:41.424Z,101774.84
2023-05-09T20:43:09.562Z,101774.72
2023-05-09T20:45:38.592Z,101780.69
2023-05-09T20:48:08.598Z,101780.63
2023-05-09T20:50:36.959Z,101786.72
2023-05-09T20:53:05.130Z,101794.47
2023-05-09T20:55:33.393Z,101789.16
2023-05-09T20:58:01.554Z,101795.25
2023-05-09T21:00:29.864Z,101792.44
2023-05-09T21:02:58.890Z,101785.31
2023-05-09T21:05:28.494Z,101770.88
2023-05-09T21:07:56.714Z,101794.91
2023-05-09T21:10:24.905Z,101782.56
2023-05-09T21:12:53.074Z,101771.00
2023-05-09T21:15:21.254Z,101787.69
2023-05-09T21:17:49.853Z,101771.88
2023-05-09T21:20:18.417Z,101780.53
2023-05-09T21:22:48.216Z,101782.19
2023-05-09T21:25:17.504Z,101783.78
2023-05-09T21:27:47.972Z,101778.47
2023-05-09T21:30:16.353Z,101783.66
2023-05-09T21:32:44.745Z,101786.09
2023-05-09T21:35:13.213Z,101746.03
2023-05-09T21:37:41.598Z,101792.25
2023-05-09T21:40:13.038Z,101780.84
2023-05-09T21:42:44.230Z,101653.00
2023-05-09T21:45:12.735Z,101779.69
2023-05-09T21:47:41.302Z,101790.00
2023-05-09T21:50:10.769Z,101765.16
2023-05-09T21:52:39.052Z,101780.34
2023-05-09T21:55:07.420Z,101775.91
2023-05-09T21:57:37.275Z,101781.94
2023-05-09T22:00:06.034Z,101762.28
2023-05-09T22:02:34.240Z,101778.22
2023-05-09T22:05:04.941Z,101767.25
2023-05-09T22:07:33.008Z,101762.91
2023-05-09T22:10:00.854Z,101783.19
2023-05-09T22:12:28.815Z,101778.78
2023-05-09T22:14:58.227Z,101779.47
2023-05-09T22:17:26.256Z,101777.63
2023-05-09T22:19:54.264Z,101781.91
2023-05-09T22:22:22.613Z,101781.00
2023-05-09T22:24:50.474Z,101780.09
2023-05-09T22:27:18.394Z,101777.41
2023-05-09T22:29:47.001Z,101753.88
2023-05-09T22:32:16.555Z,101782.53
2023-05-09T22:34:47.617Z,101770.66
2023-05-09T22:37:15.974Z,101791.88
2023-05-09T22:39:44.111Z,101787.41
2023-05-09T22:42:12.020Z,101788.16
2023-05-09T22:44:40.339Z,101790.59
2023-05-09T22:47:09.278Z,101785.78
2023-05-09T22:49:38.621Z,101785.78
2023-05-09T22:52:06.856Z,101756.84
2023-05-09T22:54:34.980Z,101786.28
2023-05-09T22:57:03.030Z,101798.84
2023-05-09T22:59:32.120Z,101802.16
2023-05-09T23:02:00.397Z,101786.75
2023-05-09T23:04:28.384Z,101793.72
2023-05-09T23:06:57.753Z,101802.69
2023-05-09T23:09:25.615Z,101791.03
2023-05-09T23:11:53.784Z,101809.59
2023-05-09T23:14:21.907Z,101812.06
2023-05-09T23:16:50.865Z,101804.97
2023-05-09T23:19:19.785Z,101818.88
2023-05-09T23:21:47.801Z,101813.56
2023-05-09T23:24:17.434Z,101816.06
2023-05-09T23:26:45.744Z,101807.91
2023-05-09T23:29:13.988Z,101815.91
2023-05-09T23:31:43.390Z,101787.22
2023-05-09T23:34:11.338Z,101820.13
2023-05-09T23:36:39.476Z,101813.34
2023-05-09T23:39:07.317Z,101834.50
2023-05-09T23:41:36.724Z,101826.56
2023-05-09T23:44:04.631Z,101827.31
2023-05-09T23:46:32.509Z,101820.97
2023-05-09T23:49:00.616Z,101824.41
2023-05-09T23:51:28.690Z,101824.19
2023-05-09T23:53:57.047Z,101817.78
2023-05-09T23:56:25.369Z,101820.25
2023-05-09T23:58:55.647Z,101824.72
